Time;durP1;ratioP1;P1;durP2;ratioP2;P2;SDS_P1;SDS_P2;PMS_P1;PMS_P2;Temp;Humidity;BMP_temperature;BMP_pressure;BME280_temperature;BME280_humidity;BME280_pressure;Samples;Min_cycle;Max_cycle;Signal;HPM_P1;HPM_P2
2022/09/23 00:00:50;;;;;;;11.20;9.80;;;;;;;;;;5095372;28;20198;-70
2022/09/23 00:03:20;;;;;;;12.02;9.73;;;;;;;;;;5095835;28;20458;-71
2022/09/23 00:05:57;;;;;;;12.55;9.88;;;;;;;;;;5095245;28;20288;-71
2022/09/23 00:08:25;;;;;;;14.13;9.88;;;;;;;;;;5096091;28;20189;-71
2022/09/23 00:10:52;;;;;;;16.92;10.55;;;;;;;;;;5095170;28;20193;-70
2022/09/23 00:13:19;;;;;;;10.38;9.27;;;;;;;;;;5095412;28;20307;-70
2022/09/23 00:15:46;;;;;;;11.85;9.77;;;;;;;;;;5094419;28;20277;-70
2022/09/23 00:18:14;;;;;;;10.82;9.68;;;;;;;;;;5095283;28;20193;-70
2022/09/23 00:20:42;;;;;;;11.10;9.98;;;;;;;;;;5094917;28;20203;-70
2022/09/23 00:23:09;;;;;;;9.55;8.55;;;;;;;;;;5095321;28;20193;-70
2022/09/23 00:25:36;;;;;;;12.07;9.27;;;;;;;;;;5095107;28;20224;-71
2022/09/23 00:28:04;;;;;;;9.93;8.93;;;;;;;;;;5094846;28;20228;-70
2022/09/23 00:30:31;;;;;;;10.63;9.50;;;;;;;;;;5095064;28;20200;-70
2022/09/23 00:32:59;;;;;;;9.93;8.90;;;;;;;;;;5095190;28;20196;-71
2022/09/23 00:35:26;;;;;;;11.77;9.88;;;;;;;;;;5094954;28;20198;-70
2022/09/23 00:37:55;;;;;;;9.98;8.75;;;;;;;;;;5094954;28;20189;-71
2022/09/23 00:40:22;;;;;;;12.52;9.63;;;;;;;;;;5094412;28;20743;-71
2022/09/23 00:42:50;;;;;;;12.60;9.47;;;;;;;;;;5094961;28;20285;-71
2022/09/23 00:45:18;;;;;;;9.80;8.90;;;;;;;;;;5094405;28;20439;-70
2022/09/23 00:47:47;;;;;;;8.95;8.05;;;;;;;;;;5094822;28;20850;-70
2022/09/23 00:50:15;;;;;;;12.20;8.40;;;;;;;;;;5094355;28;20194;-70
2022/09/23 00:52:42;;;;;;;9.38;8.25;;;;;;;;;;5094529;28;20439;-71
2022/09/23 00:55:13;;;;;;;11.00;8.88;;;;;;;;;;5094920;28;20630;-71
2022/09/23 00:57:42;;;;;;;8.73;7.82;;;;;;;;;;5094586;28;20193;-70
2022/09/23 01:00:10;;;;;;;14.93;9.75;;;;;;;;;;5094488;28;20615;-70
2022/09/23 01:02:38;;;;;;;11.48;8.95;;;;;;;;;;5094105;28;20197;-71
2022/09/23 01:05:06;;;;;;;10.70;8.40;;;;;;;;;;5094390;28;20203;-70
2022/09/23 01:07:34;;;;;;;11.30;8.07;;;;;;;;;;5094373;28;20436;-71
2022/09/23 01:10:02;;;;;;;9.68;8.70;;;;;;;;;;5094714;28;20512;-70
2022/09/23 01:12:41;;;;;;;11.10;8.70;;;;;;;;;;5094160;28;20197;-71
2022/09/23 01:15:12;;;;;;;8.85;7.95;;;;;;;;;;5094330;28;20182;-71
2022/09/23 01:17:41;;;;;;;9.25;8.32;;;;;;;;;;5093868;28;20188;-70
2022/09/23 01:20:29;;;;;;;10.40;8.30;;;;;;;;;;5094196;28;20217;-70
2022/09/23 01:23:03;;;;;;;9.07;7.30;;;;;;;;;;5088075;28;20197;-71
2022/09/23 01:25:46;;;;;;;7.40;6.70;;;;;;;;;;5093872;28;20183;-70
2022/09/23 01:28:32;;;;;;;8.20;7.40;;;;;;;;;;5093687;28;20223;-72
2022/09/23 01:31:05;;;;;;;8.10;7.30;;;;;;;;;;5094327;28;20185;-71
2022/09/23 01:33:36;;;;;;;8.90;8.00;;;;;;;;;;5094453;28;20186;-71
2022/09/23 01:36:08;;;;;;;9.65;7.75;;;;;;;;;;5093958;28;20569;-70
2022/09/23 01:38:40;;;;;;;8.30;7.05;;;;;;;;;;5093507;28;20183;-70
2022/09/23 01:41:13;;;;;;;8.32;7.55;;;;;;;;;;5093775;28;20189;-71
2022/09/23 01:43:46;;;;;;;9.50;8.60;;;;;;;;;;5094165;28;20182;-70
2022/09/23 01:46:17;;;;;;;9.15;7.72;;;;;;;;;;5093326;28;20199;-69
2022/09/23 01:48:47;;;;;;;9.38;8.43;;;;;;;;;;5093960;28;20182;-70
2022/09/23 01:51:17;;;;;;;8.55;7.65;;;;;;;;;;5093526;28;20668;-70
2022/09/23 01:53:47;;;;;;;8.60;7.80;;;;;;;;;;5093546;28;20193;-70
2022/09/23 01:56:18;;;;;;;9.00;6.55;;;;;;;;;;5093225;28;20653;-69
2022/09/23 01:58:47;;;;;;;9.43;6.70;;;;;;;;;;5093549;28;20197;-70
2022/09/23 02:01:21;;;;;;;8.30;7.50;;;;;;;;;;5093515;28;20197;-69
2022/09/23 02:03:50;;;;;;;7.35;6.72;;;;;;;;;;5093839;28;20196;-68
2022/09/23 02:06:21;;;;;;;7.55;6.85;;;;;;;;;;5093270;28;20565;-69
2022/09/23 02:08:52;;;;;;;8.27;7.27;;;;;;;;;;5093091;28;20631;-69
2022/09/23 02:11:20;;;;;;;13.60;6.88;;;;;;;;;;5093042;28;20905;-68
2022/09/23 02:13:49;;;;;;;10.43;6.80;;;;;;;;;;5093335;28;20206;-70
2022/09/23 02:16:21;;;;;;;8.10;6.60;;;;;;;;;;5093352;28;20200;-69
2022/09/23 02:18:52;;;;;;;7.90;6.53;;;;;;;;;;5093685;28;20602;-69
2022/09/23 02:21:21;;;;;;;7.45;6.75;;;;;;;;;;5093144;28;20197;-68
2022/09/23 02:23:50;;;;;;;9.70;6.50;;;;;;;;;;5093147;28;20193;-69
2022/09/23 02:26:19;;;;;;;7.03;5.90;;;;;;;;;;5093049;28;20202;-69
2022/09/23 02:28:51;;;;;;;7.82;6.85;;;;;;;;;;5092371;28;20998;-69
2022/09/23 02:31:26;;;;;;;7.68;7.07;;;;;;;;;;5092785;28;20182;-70
2022/09/23 02:33:55;;;;;;;7.57;6.57;;;;;;;;;;5092982;28;20185;-70
2022/09/23 02:36:26;;;;;;;11.80;7.43;;;;;;;;;;5092751;28;20510;-69
2022/09/23 02:38:56;;;;;;;7.32;6.57;;;;;;;;;;5097610;28;20188;-71
2022/09/23 02:41:27;;;;;;;7.22;6.53;;;;;;;;;;5099668;28;20193;-70
2022/09/23 02:43:55;;;;;;;7.40;6.63;;;;;;;;;;5099257;28;20660;-69
2022/09/23 02:46:24;;;;;;;7.40;6.57;;;;;;;;;;5099849;28;20189;-70
2022/09/23 02:48:54;;;;;;;9.73;6.68;;;;;;;;;;5099191;28;20203;-70
2022/09/23 02:51:24;;;;;;;10.77;6.90;;;;;;;;;;5099758;28;20192;-70
2022/09/23 02:53:51;;;;;;;7.65;6.30;;;;;;;;;;5099084;28;20207;-71
2022/09/23 02:56:20;;;;;;;8.82;7.25;;;;;;;;;;5099120;28;20193;-70
2022/09/23 02:58:47;;;;;;;7.00;6.40;;;;;;;;;;5099313;28;20240;-69
2022/09/23 03:01:20;;;;;;;7.20;6.60;;;;;;;;;;5099077;28;20223;-69
2022/09/23 03:03:54;;;;;;;7.03;6.43;;;;;;;;;;5099200;28;20189;-69
2022/09/23 03:06:27;;;;;;;7.90;7.10;;;;;;;;;;5099322;28;20184;-69
2022/09/23 03:08:58;;;;;;;7.78;6.97;;;;;;;;;;5099596;28;20269;-70
2022/09/23 03:11:25;;;;;;;7.88;7.07;;;;;;;;;;5099567;28;20201;-69
2022/09/23 03:13:57;;;;;;;8.13;7.30;;;;;;;;;;5099492;28;20249;-70
2022/09/23 03:16:31;;;;;;;8.50;6.10;;;;;;;;;;5100170;28;20877;-69
2022/09/23 03:19:06;;;;;;;7.45;6.57;;;;;;;;;;5099028;28;20198;-70
2022/09/23 03:21:37;;;;;;;8.48;7.00;;;;;;;;;;5099301;28;20547;-70
2022/09/23 03:24:06;;;;;;;6.80;6.13;;;;;;;;;;5099397;28;20261;-70
2022/09/23 03:26:35;;;;;;;7.72;7.03;;;;;;;;;;5098992;28;20199;-70
2022/09/23 03:29:03;;;;;;;8.45;6.45;;;;;;;;;;5099086;28;20221;-70
2022/09/23 03:31:31;;;;;;;7.85;7.07;;;;;;;;;;5098925;28;20190;-70
2022/09/23 03:34:00;;;;;;;6.45;5.95;;;;;;;;;;5099303;28;20200;-70
2022/09/23 03:36:50;;;;;;;9.73;6.93;;;;;;;;;;5098940;28;20203;-70
2022/09/23 03:39:24;;;;;;;7.78;7.05;;;;;;;;;;5099260;28;20200;-70
2022/09/23 03:41:52;;;;;;;7.68;7.07;;;;;;;;;;5099136;28;20187;-71
2022/09/23 03:44:19;;;;;;;7.53;6.82;;;;;;;;;;5099018;28;20207;-70
2022/09/23 03:46:49;;;;;;;9.65;7.45;;;;;;;;;;5098673;28;20283;-70
2022/09/23 03:49:18;;;;;;;7.72;6.93;;;;;;;;;;5096884;28;20650;-70
2022/09/23 03:51:46;;;;;;;8.20;7.05;;;;;;;;;;5095714;28;20204;-70
2022/09/23 03:54:13;;;;;;;7.00;6.25;;;;;;;;;;5095767;28;20284;-69
2022/09/23 03:56:40;;;;;;;8.18;7.38;;;;;;;;;;5095474;28;20207;-70
2022/09/23 03:59:07;;;;;;;8.50;7.80;;;;;;;;;;5093665;28;20552;-69
2022/09/23 04:01:35;;;;;;;7.65;7.00;;;;;;;;;;5094623;28;20304;-68
2022/09/23 04:04:02;;;;;;;8.45;7.55;;;;;;;;;;5094410;28;20193;-69
2022/09/23 04:06:30;;;;;;;7.50;6.70;;;;;;;;;;5093900;28;20662;-69
2022/09/23 04:09:00;;;;;;;7.90;7.20;;;;;;;;;;5094234;28;20207;-69
2022/09/23 04:11:27;;;;;;;7.32;6.63;;;;;;;;;;5093800;28;20190;-69
2022/09/23 04:13:56;;;;;;;9.15;8.30;;;;;;;;;;5094046;28;20665;-69
2022/09/23 04:16:23;;;;;;;8.57;7.80;;;;;;;;;;5094534;28;20194;-69
2022/09/23 04:18:50;;;;;;;12.25;7.82;;;;;;;;;;5094173;28;20200;-69
2022/09/23 04:21:17;;;;;;;7.50;6.80;;;;;;;;;;5094370;28;20549;-69
2022/09/23 04:23:46;;;;;;;6.75;6.10;;;;;;;;;;5094263;28;20197;-68
2022/09/23 04:26:13;;;;;;;9.43;7.47;;;;;;;;;;5093955;28;20645;-70
2022/09/23 04:28:41;;;;;;;8.50;7.45;;;;;;;;;;5093600;28;20305;-70
2022/09/23 04:31:09;;;;;;;8.18;7.38;;;;;;;;;;5094195;28;20204;-69
2022/09/23 04:33:36;;;;;;;7.90;7.00;;;;;;;;;;5094198;28;20205;-69
2022/09/23 04:36:03;;;;;;;7.90;6.85;;;;;;;;;;5094298;28;20604;-69
2022/09/23 04:38:31;;;;;;;9.75;7.95;;;;;;;;;;5093946;28;20197;-69
2022/09/23 04:40:59;;;;;;;12.75;8.43;;;;;;;;;;5094473;28;20235;-70
2022/09/23 04:43:27;;;;;;;8.23;7.53;;;;;;;;;;5094714;28;20231;-70
2022/09/23 04:46:01;;;;;;;8.68;7.88;;;;;;;;;;5094733;28;20189;-71
2022/09/23 04:48:28;;;;;;;9.27;8.48;;;;;;;;;;5094497;28;20228;-70
2022/09/23 04:50:55;;;;;;;9.73;8.82;;;;;;;;;;5093747;28;20623;-69
2022/09/23 04:53:23;;;;;;;8.80;8.07;;;;;;;;;;5094469;28;20220;-69
2022/09/23 04:55:51;;;;;;;8.70;8.00;;;;;;;;;;5094329;28;20206;-70
2022/09/23 04:58:21;;;;;;;8.25;6.90;;;;;;;;;;5093462;28;20569;-69
2022/09/23 05:00:49;;;;;;;10.48;8.85;;;;;;;;;;5093549;28;20551;-70
2022/09/23 05:03:16;;;;;;;9.20;7.53;;;;;;;;;;5094140;28;20685;-69
2022/09/23 05:05:43;;;;;;;14.93;8.25;;;;;;;;;;5094302;28;20200;-69
2022/09/23 05:08:10;;;;;;;10.88;7.75;;;;;;;;;;5094163;28;20196;-69
2022/09/23 05:10:37;;;;;;;8.55;7.80;;;;;;;;;;5093601;28;20204;-71
2022/09/23 05:13:05;;;;;;;8.05;7.35;;;;;;;;;;5093199;28;20200;-71
2022/09/23 05:15:33;;;;;;;8.13;7.45;;;;;;;;;;5092743;28;20200;-70
2022/09/23 05:18:01;;;;;;;9.38;7.78;;;;;;;;;;5092547;28;20197;-70
2022/09/23 05:20:28;;;;;;;7.97;7.18;;;;;;;;;;5093945;28;20234;-74
2022/09/23 05:22:56;;;;;;;13.15;7.82;;;;;;;;;;5093240;28;20204;-69
2022/09/23 05:25:23;;;;;;;9.43;8.10;;;;;;;;;;5093229;28;20205;-68
2022/09/23 05:27:51;;;;;;;7.50;6.72;;;;;;;;;;5093373;28;20224;-68
2022/09/23 05:30:18;;;;;;;8.75;8.05;;;;;;;;;;5093651;28;20203;-68
2022/09/23 05:32:47;;;;;;;7.78;7.13;;;;;;;;;;5093605;28;20197;-68
2022/09/23 05:35:14;;;;;;;7.88;7.10;;;;;;;;;;5094050;28;20201;-68
2022/09/23 05:37:41;;;;;;;8.10;7.30;;;;;;;;;;5093537;28;20200;-68
2022/09/23 05:40:09;;;;;;;8.02;7.22;;;;;;;;;;5093603;28;20243;-68
2022/09/23 05:42:36;;;;;;;10.05;7.20;;;;;;;;;;5093494;28;20669;-68
2022/09/23 05:45:03;;;;;;;8.75;7.95;;;;;;;;;;5093256;28;20196;-68
2022/09/23 05:47:30;;;;;;;8.93;8.13;;;;;;;;;;5093543;28;20199;-68
2022/09/23 05:49:59;;;;;;;10.13;9.02;;;;;;;;;;5093204;28;20200;-68
2022/09/23 05:52:26;;;;;;;9.10;8.18;;;;;;;;;;5093504;28;20215;-68
2022/09/23 05:54:53;;;;;;;10.18;9.15;;;;;;;;;;5093678;28;20196;-68
2022/09/23 05:57:20;;;;;;;9.52;8.63;;;;;;;;;;5093834;28;20196;-68
2022/09/23 05:59:47;;;;;;;18.33;7.85;;;;;;;;;;5093013;28;20206;-68
2022/09/23 06:02:15;;;;;;;10.48;7.57;;;;;;;;;;5093272;28;20217;-68
2022/09/23 06:04:42;;;;;;;9.25;8.35;;;;;;;;;;5092942;28;20200;-68
2022/09/23 06:07:11;;;;;;;8.55;7.80;;;;;;;;;;5093311;28;20203;-68
2022/09/23 06:09:38;;;;;;;13.05;7.95;;;;;;;;;;5093231;28;20227;-69
2022/09/23 06:12:06;;;;;;;8.38;7.57;;;;;;;;;;5092629;28;20202;-68
2022/09/23 06:14:33;;;;;;;11.02;8.10;;;;;;;;;;5092952;28;20246;-68
2022/09/23 06:17:00;;;;;;;8.32;7.53;;;;;;;;;;5092794;28;20203;-68
2022/09/23 06:19:27;;;;;;;12.70;8.30;;;;;;;;;;5092848;28;20200;-69
2022/09/23 06:21:54;;;;;;;11.15;7.60;;;;;;;;;;5092713;28;20209;-68
2022/09/23 06:24:23;;;;;;;11.13;7.63;;;;;;;;;;5092849;28;20664;-68
2022/09/23 06:26:50;;;;;;;9.38;8.20;;;;;;;;;;5092660;28;20203;-68
2022/09/23 06:29:18;;;;;;;11.43;7.38;;;;;;;;;;5093281;28;20708;-68
2022/09/23 06:31:45;;;;;;;8.45;7.30;;;;;;;;;;5093079;28;20203;-68
2022/09/23 06:34:13;;;;;;;10.13;8.20;;;;;;;;;;5092993;28;20218;-68
2022/09/23 06:36:41;;;;;;;14.63;9.00;;;;;;;;;;5092785;28;20283;-68
2022/09/23 06:39:08;;;;;;;11.75;8.05;;;;;;;;;;5092632;28;20236;-69
2022/09/23 06:41:37;;;;;;;9.88;7.55;;;;;;;;;;5092419;28;20220;-68
2022/09/23 06:44:04;;;;;;;8.63;7.75;;;;;;;;;;5092914;28;20483;-69
2022/09/23 06:46:31;;;;;;;9.25;7.20;;;;;;;;;;5092497;28;20200;-70
2022/09/23 06:48:59;;;;;;;15.80;8.60;;;;;;;;;;5092561;28;20189;-69
2022/09/23 06:51:27;;;;;;;7.68;6.95;;;;;;;;;;5092748;28;20201;-68
2022/09/23 06:53:54;;;;;;;7.85;6.82;;;;;;;;;;5093174;28;20203;-69
2022/09/23 06:56:22;;;;;;;9.65;7.05;;;;;;;;;;5092690;28;20193;-69
2022/09/23 06:58:52;;;;;;;14.18;8.05;;;;;;;;;;5092782;28;20193;-69
2022/09/23 07:01:19;;;;;;;8.65;6.78;;;;;;;;;;5092990;28;20240;-68
2022/09/23 07:03:47;;;;;;;9.07;6.95;;;;;;;;;;5092326;28;20240;-69
2022/09/23 07:06:14;;;;;;;7.63;6.90;;;;;;;;;;5092654;28;20266;-68
2022/09/23 07:08:43;;;;;;;8.75;7.95;;;;;;;;;;5092320;28;20197;-69
2022/09/23 07:11:11;;;;;;;9.77;7.17;;;;;;;;;;5092244;28;20206;-68
2022/09/23 07:13:39;;;;;;;7.70;6.47;;;;;;;;;;5092695;28;20467;-68
2022/09/23 07:16:08;;;;;;;11.45;7.15;;;;;;;;;;5092566;28;20204;-68
2022/09/23 07:18:36;;;;;;;9.87;6.73;;;;;;;;;;5092625;28;20210;-69
2022/09/23 07:21:07;;;;;;;8.87;6.73;;;;;;;;;;5092133;28;20471;-69
2022/09/23 07:23:36;;;;;;;7.67;6.87;;;;;;;;;;5092391;28;20527;-69
2022/09/23 07:26:04;;;;;;;16.47;7.90;;;;;;;;;;5095963;28;20486;-68
2022/09/23 07:28:31;;;;;;;8.73;6.60;;;;;;;;;;5096209;28;20643;-68
2022/09/23 07:31:03;;;;;;;8.37;7.67;;;;;;;;;;5096289;28;20443;-68
2022/09/23 07:33:31;;;;;;;10.27;7.07;;;;;;;;;;5096813;28;20423;-68
2022/09/23 07:35:59;;;;;;;8.00;6.63;;;;;;;;;;5095860;28;20450;-68
2022/09/23 07:38:28;;;;;;;8.83;6.57;;;;;;;;;;5096124;28;20196;-68
2022/09/23 07:41:01;;;;;;;8.73;7.40;;;;;;;;;;5095627;28;20486;-68
2022/09/23 07:43:31;;;;;;;9.23;6.63;;;;;;;;;;5096345;28;20504;-68
2022/09/23 07:45:58;;;;;;;8.43;7.00;;;;;;;;;;5095632;28;20475;-68
2022/09/23 07:48:26;;;;;;;8.33;6.10;;;;;;;;;;5096218;28;20446;-68
2022/09/23 07:50:54;;;;;;;16.73;7.40;;;;;;;;;;5095901;28;20447;-68
2022/09/23 07:53:22;;;;;;;8.50;5.80;;;;;;;;;;5095528;28;20458;-69
2022/09/23 07:55:53;;;;;;;9.70;6.20;;;;;;;;;;5095807;28;20458;-68
2022/09/23 07:58:20;;;;;;;8.13;5.80;;;;;;;;;;5095625;28;20446;-68
2022/09/23 08:00:50;;;;;;;8.23;5.57;;;;;;;;;;5095266;28;20440;-68
2022/09/23 08:03:17;;;;;;;12.10;6.37;;;;;;;;;;5095375;28;20513;-68
2022/09/23 08:05:45;;;;;;;7.00;5.20;;;;;;;;;;5095878;28;20436;-68
2022/09/23 08:08:14;;;;;;;8.33;5.13;;;;;;;;;;5095492;28;20437;-67
2022/09/23 08:10:41;;;;;;;5.73;5.20;;;;;;;;;;5095571;28;20448;-68
2022/09/23 08:13:08;;;;;;;6.40;5.70;;;;;;;;;;5095001;28;20449;-68
2022/09/23 08:15:35;;;;;;;5.40;5.00;;;;;;;;;;5095372;28;20950;-68
2022/09/23 08:18:03;;;;;;;5.10;4.40;;;;;;;;;;5095194;28;20447;-68
2022/09/23 08:20:46;;;;;;;5.63;5.10;;;;;;;;;;5095448;28;20436;-68
2022/09/23 08:23:15;;;;;;;4.73;4.20;;;;;;;;;;5095242;28;20813;-68
2022/09/23 08:25:44;;;;;;;7.60;4.60;;;;;;;;;;5095229;28;20455;-68
2022/09/23 08:28:14;;;;;;;4.60;4.20;;;;;;;;;;5094886;28;20608;-68
2022/09/23 08:30:42;;;;;;;4.50;4.10;;;;;;;;;;5094841;28;20539;-68
2022/09/23 08:33:09;;;;;;;5.17;4.67;;;;;;;;;;5094748;28;20436;-68
2022/09/23 08:35:36;;;;;;;9.00;5.27;;;;;;;;;;5094059;28;20433;-68
2022/09/23 08:38:03;;;;;;;5.00;4.50;;;;;;;;;;5095258;28;20515;-68
2022/09/23 08:40:33;;;;;;;5.50;4.97;;;;;;;;;;5094929;28;20434;-68
2022/09/23 08:43:00;;;;;;;5.50;5.00;;;;;;;;;;5095218;28;20576;-68
2022/09/23 08:45:28;;;;;;;6.43;4.67;;;;;;;;;;5094588;28;20529;-68
2022/09/23 08:48:00;;;;;;;5.70;4.63;;;;;;;;;;5094757;28;20449;-68
2022/09/23 08:50:29;;;;;;;4.97;4.47;;;;;;;;;;5094589;28;20427;-68
2022/09/23 08:52:57;;;;;;;6.47;5.07;;;;;;;;;;5094847;28;20944;-68
2022/09/23 08:55:29;;;;;;;4.80;4.37;;;;;;;;;;5094295;28;20533;-68
2022/09/23 08:58:05;;;;;;;5.67;4.30;;;;;;;;;;5094484;28;20487;-68
2022/09/23 09:00:35;;;;;;;9.83;4.90;;;;;;;;;;5094267;28;20507;-68
2022/09/23 09:03:06;;;;;;;5.20;4.70;;;;;;;;;;5094066;28;20459;-68
2022/09/23 09:05:34;;;;;;;5.10;4.70;;;;;;;;;;5094308;28;20486;-68
2022/09/23 09:08:02;;;;;;;5.37;4.87;;;;;;;;;;5094235;28;20441;-68
2022/09/23 09:10:32;;;;;;;5.60;4.80;;;;;;;;;;5094540;28;20441;-68
2022/09/23 09:13:05;;;;;;;6.57;4.80;;;;;;;;;;5094582;28;20446;-68
2022/09/23 09:15:35;;;;;;;6.60;4.87;;;;;;;;;;5094766;28;20799;-68
2022/09/23 09:18:05;;;;;;;5.20;4.70;;;;;;;;;;5094320;28;20455;-68
2022/09/23 09:20:35;;;;;;;7.17;5.43;;;;;;;;;;5094475;28;20478;-68
2022/09/23 09:23:07;;;;;;;5.73;5.23;;;;;;;;;;5093790;28;20982;-68
2022/09/23 09:25:38;;;;;;;5.13;4.73;;;;;;;;;;5094196;28;20518;-68
2022/09/23 09:28:12;;;;;;;4.80;4.40;;;;;;;;;;5094145;28;20583;-68
2022/09/23 09:30:39;;;;;;;8.20;4.90;;;;;;;;;;5093970;28;20422;-68
2022/09/23 09:33:11;;;;;;;5.30;4.80;;;;;;;;;;5093695;28;20456;-68
2022/09/23 09:35:41;;;;;;;8.27;4.50;;;;;;;;;;5094196;28;20429;-68
2022/09/23 09:38:08;;;;;;;6.70;5.13;;;;;;;;;;5094054;28;20453;-68
2022/09/23 09:40:36;;;;;;;9.27;5.30;;;;;;;;;;5093522;28;20950;-68
2022/09/23 09:43:04;;;;;;;6.17;5.20;;;;;;;;;;5093701;28;20830;-68
2022/09/23 09:45:41;;;;;;;5.57;5.00;;;;;;;;;;5093414;28;20909;-68
2022/09/23 09:48:10;;;;;;;5.40;4.90;;;;;;;;;;5093120;28;20469;-68
2022/09/23 09:50:48;;;;;;;6.90;5.90;;;;;;;;;;5093713;28;20445;-68
2022/09/23 09:53:21;;;;;;;7.13;5.37;;;;;;;;;;5093586;28;20489;-68
2022/09/23 09:55:58;;;;;;;6.00;5.10;;;;;;;;;;5093584;28;20856;-68
2022/09/23 09:58:26;;;;;;;4.73;4.43;;;;;;;;;;5093101;28;20543;-68
2022/09/23 10:00:54;;;;;;;6.23;4.60;;;;;;;;;;5093411;28;20536;-68
2022/09/23 10:03:26;;;;;;;4.97;4.57;;;;;;;;;;5093307;28;20579;-68
2022/09/23 10:05:56;;;;;;;4.97;4.47;;;;;;;;;;5093861;28;20437;-68
2022/09/23 10:08:26;;;;;;;9.00;4.00;;;;;;;;;;5093687;28;20803;-68
2022/09/23 10:10:54;;;;;;;4.13;3.73;;;;;;;;;;5093368;28;20784;-68
2022/09/23 10:13:23;;;;;;;6.07;4.20;;;;;;;;;;5092876;28;20446;-68
2022/09/23 10:15:53;;;;;;;5.30;4.80;;;;;;;;;;5093314;28;20457;-68
2022/09/23 10:18:27;;;;;;;6.83;3.83;;;;;;;;;;5093609;28;20464;-68
2022/09/23 10:21:00;;;;;;;6.43;4.73;;;;;;;;;;5093276;28;20513;-68
2022/09/23 10:23:32;;;;;;;4.77;4.30;;;;;;;;;;5092918;28;20862;-68
2022/09/23 10:26:00;;;;;;;8.07;4.57;;;;;;;;;;5093270;28;20425;-68
2022/09/23 10:28:31;;;;;;;6.10;4.03;;;;;;;;;;5092736;28;20483;-68
2022/09/23 10:31:05;;;;;;;11.03;4.07;;;;;;;;;;5092716;28;20930;-69
2022/09/23 10:33:35;;;;;;;4.93;4.30;;;;;;;;;;5092635;28;20625;-68
2022/09/23 10:36:02;;;;;;;4.33;3.93;;;;;;;;;;5093458;28;20450;-68
2022/09/23 10:38:30;;;;;;;5.77;4.50;;;;;;;;;;5093441;28;20444;-68
2022/09/23 10:46:40;;;;;;;5.47;4.23;;;;;;;;;;5092883;28;20405;-68
2022/09/23 10:49:26;;;;;;;6.67;5.07;;;;;;;;;;5093180;28;20429;-69
2022/09/23 10:51:58;;;;;;;5.73;4.00;;;;;;;;;;5052938;28;20479;-68
2022/09/23 10:54:31;;;;;;;6.53;4.80;;;;;;;;;;5092746;28;20452;-68
2022/09/23 10:57:36;;;;;;;4.20;3.83;;;;;;;;;;5092666;28;20925;-69
2022/09/23 10:59:54;;;;;;;4.97;4.30;;;;;;;;;;5095061;28;20927;-68
2022/09/23 11:02:43;;;;;;;4.67;3.83;;;;;;;;;;5096964;28;20463;-68
2022/09/23 11:05:31;;;;;;;4.80;4.40;;;;;;;;;;5096985;28;20450;-68
2022/09/23 11:08:03;;;;;;;5.50;4.00;;;;;;;;;;5091135;28;20502;-68
2022/09/23 11:10:48;;;;;;;14.10;4.97;;;;;;;;;;5096410;28;20525;-68
2022/09/23 11:13:21;;;;;;;7.23;5.13;;;;;;;;;;5085343;28;20800;-68
2022/09/23 11:15:54;;;;;;;6.23;5.73;;;;;;;;;;5096716;28;20557;-68
2022/09/23 11:18:40;;;;;;;4.30;4.00;;;;;;;;;;5096715;28;20435;-68
2022/09/23 11:21:19;;;;;;;8.63;3.63;;;;;;;;;;5096518;28;20466;-68
2022/09/23 11:24:00;;;;;;;5.97;3.90;;;;;;;;;;5096579;28;20494;-68
2022/09/23 11:26:31;;;;;;;7.83;4.80;;;;;;;;;;5096209;28;20487;-68
2022/09/23 11:29:07;;;;;;;6.37;4.13;;;;;;;;;;5096312;28;20476;-68
2022/09/23 11:31:39;;;;;;;4.83;4.33;;;;;;;;;;5096208;28;20525;-68
2022/09/23 11:34:17;;;;;;;6.33;4.87;;;;;;;;;;5096257;28;20430;-68
2022/09/23 11:36:47;;;;;;;4.47;4.07;;;;;;;;;;5097037;28;20432;-68
2022/09/23 11:39:19;;;;;;;5.27;4.30;;;;;;;;;;5096011;28;20441;-68
2022/09/23 11:41:47;;;;;;;5.43;3.57;;;;;;;;;;5096449;28;20451;-68
2022/09/23 11:44:20;;;;;;;7.70;3.70;;;;;;;;;;5095660;28;20442;-68
2022/09/23 11:46:53;;;;;;;10.90;4.00;;;;;;;;;;5096473;28;20425;-68
2022/09/23 11:49:35;;;;;;;8.10;4.10;;;;;;;;;;5095667;28;20521;-68
2022/09/23 11:52:11;;;;;;;5.07;3.90;;;;;;;;;;5095744;28;20432;-68
2022/09/23 11:54:44;;;;;;;8.30;4.03;;;;;;;;;;5095941;28;20502;-68
2022/09/23 11:57:17;;;;;;;6.20;4.30;;;;;;;;;;5096037;28;20434;-69
2022/09/23 11:59:47;;;;;;;4.30;3.83;;;;;;;;;;5095467;28;20460;-68
2022/09/23 12:02:19;;;;;;;4.73;4.33;;;;;;;;;;5095519;28;20477;-69
2022/09/23 12:04:48;;;;;;;6.17;4.30;;;;;;;;;;5095884;28;20773;-69
2022/09/23 12:07:17;;;;;;;4.80;3.97;;;;;;;;;;5095650;28;20520;-69
2022/09/23 12:10:00;;;;;;;4.57;4.10;;;;;;;;;;5095103;28;20933;-69
2022/09/23 12:12:32;;;;;;;5.27;4.03;;;;;;;;;;5095198;28;20440;-69
2022/09/23 12:15:07;;;;;;;4.20;3.90;;;;;;;;;;5095773;28;20427;-69
2022/09/23 12:17:46;;;;;;;5.43;3.70;;;;;;;;;;5095208;28;20520;-69
2022/09/23 12:20:41;;;;;;;7.27;3.90;;;;;;;;;;5095469;28;20934;-68
2022/09/23 12:23:14;;;;;;;4.00;3.60;;;;;;;;;;5013031;28;20478;-69
2022/09/23 12:25:50;;;;;;;5.37;4.33;;;;;;;;;;5025064;28;20805;-69
2022/09/23 12:28:20;;;;;;;6.20;5.20;;;;;;;;;;5095680;28;20479;-69
2022/09/23 12:30:49;;;;;;;7.57;3.90;;;;;;;;;;5095394;28;20454;-68
2022/09/23 12:33:23;;;;;;;5.50;4.20;;;;;;;;;;5095272;28;20525;-69
2022/09/23 12:35:54;;;;;;;4.77;4.37;;;;;;;;;;5095617;28;20766;-68
2022/09/23 12:38:25;;;;;;;7.57;3.90;;;;;;;;;;5094930;28;20523;-67
2022/09/23 12:40:55;;;;;;;10.63;4.83;;;;;;;;;;5095365;28;20524;-67
2022/09/23 12:43:31;;;;;;;5.93;4.23;;;;;;;;;;5094750;28;20485;-68
2022/09/23 12:46:24;;;;;;;3.90;3.60;;;;;;;;;;5095077;28;20456;-68
2022/09/23 12:49:03;;;;;;;8.63;4.60;;;;;;;;;;5095177;28;20947;-68
2022/09/23 12:51:33;;;;;;;4.20;3.77;;;;;;;;;;5094906;28;20452;-67
2022/09/23 12:54:22;;;;;;;5.67;4.47;;;;;;;;;;5094596;28;20473;-66
2022/09/23 12:57:13;;;;;;;7.23;4.10;;;;;;;;;;5094519;28;20448;-74
2022/09/23 12:59:58;;;;;;;4.47;3.00;;;;;;;;;;5074380;28;20462;-72
2022/09/23 13:02:30;;;;;;;6.07;3.97;;;;;;;;;;5094658;28;20424;-69
2022/09/23 13:07:46;;;;;;;5.50;3.73;;;;;;;;;;5094549;28;20804;-70
2022/09/23 13:10:18;;;;;;;5.00;3.27;;;;;;;;;;5094574;28;20878;-68
2022/09/23 13:12:47;;;;;;;3.60;3.30;;;;;;;;;;5095001;28;20456;-68
2022/09/23 13:15:27;;;;;;;3.17;2.97;;;;;;;;;;5094463;28;20926;-68
2022/09/23 13:18:11;;;;;;;4.87;3.80;;;;;;;;;;5094221;28;20425;-68
2022/09/23 13:20:42;;;;;;;5.50;3.20;;;;;;;;;;5092740;28;20458;-67
2022/09/23 13:23:31;;;;;;;4.40;3.33;;;;;;;;;;5094832;28;20502;-69
2022/09/23 13:26:00;;;;;;;5.77;3.83;;;;;;;;;;5092411;28;20438;-68
2022/09/23 13:28:31;;;;;;;6.83;4.17;;;;;;;;;;5092617;28;20502;-68
2022/09/23 13:31:03;;;;;;;5.20;3.63;;;;;;;;;;5092591;28;20429;-67
2022/09/23 13:33:37;;;;;;;9.13;3.50;;;;;;;;;;5093256;28;20443;-68
2022/09/23 13:36:12;;;;;;;5.50;3.17;;;;;;;;;;5092681;28;20477;-68
2022/09/23 13:38:51;;;;;;;4.63;3.10;;;;;;;;;;5092415;28;20514;-69
2022/09/23 13:41:22;;;;;;;3.70;2.80;;;;;;;;;;5092867;28;20955;-68
2022/09/23 13:43:50;;;;;;;5.10;3.20;;;;;;;;;;5092410;28;20466;-68
2022/09/23 13:46:20;;;;;;;5.87;3.33;;;;;;;;;;5092404;28;20448;-68
2022/09/23 13:48:49;;;;;;;5.77;2.77;;;;;;;;;;5092976;28;20438;-68
2022/09/23 13:51:20;;;;;;;3.83;3.13;;;;;;;;;;5092335;28;20950;-68
2022/09/23 13:53:52;;;;;;;5.90;3.00;;;;;;;;;;5093163;28;20493;-68
2022/09/23 13:56:19;;;;;;;6.07;3.20;;;;;;;;;;5092486;28;20788;-68
2022/09/23 13:58:46;;;;;;;2.80;2.57;;;;;;;;;;5092586;28;20536;-68
2022/09/23 14:01:22;;;;;;;6.10;3.60;;;;;;;;;;5092577;28;20427;-67
2022/09/23 14:03:51;;;;;;;7.77;3.70;;;;;;;;;;5092715;28;20494;-68
2022/09/23 14:06:18;;;;;;;4.13;3.27;;;;;;;;;;5092511;28;20537;-68
2022/09/23 14:08:46;;;;;;;7.93;3.03;;;;;;;;;;5093071;28;20444;-68
2022/09/23 14:11:15;;;;;;;5.73;3.20;;;;;;;;;;5093433;28;20566;-68
2022/09/23 14:13:43;;;;;;;3.80;2.93;;;;;;;;;;5092991;28;20448;-68
2022/09/23 14:16:13;;;;;;;3.50;3.20;;;;;;;;;;5092563;28;20447;-68
2022/09/23 14:18:41;;;;;;;7.13;3.47;;;;;;;;;;5092711;28;20452;-69
2022/09/23 14:21:23;;;;;;;4.20;3.03;;;;;;;;;;5093081;28;20443;-69
2022/09/23 14:23:52;;;;;;;5.17;3.87;;;;;;;;;;5092806;28;20577;-69
2022/09/23 14:26:19;;;;;;;6.33;3.10;;;;;;;;;;5092684;28;20445;-68
2022/09/23 14:28:47;;;;;;;12.43;3.80;;;;;;;;;;5093106;28;20488;-69
2022/09/23 14:31:15;;;;;;;4.47;3.70;;;;;;;;;;5093286;28;20435;-69
2022/09/23 14:33:42;;;;;;;3.10;2.80;;;;;;;;;;5092134;28;20452;-68
2022/09/23 14:38:49;;;;;;;6.47;3.37;;;;;;;;;;5092703;28;20454;-69
2022/09/23 14:39:02;;;;;;;4.50;3.43;;;;;;;;;;5092410;28;20422;-68
2022/09/23 14:41:34;;;;;;;7.70;3.63;;;;;;;;;;5092929;28;20426;-69
2022/09/23 14:44:02;;;;;;;5.17;4.30;;;;;;;;;;5092026;28;20482;-68
2022/09/23 14:46:31;;;;;;;6.23;3.70;;;;;;;;;;5092159;28;20532;-68
2022/09/23 14:49:01;;;;;;;4.63;3.00;;;;;;;;;;5093031;28;20612;-68
2022/09/23 14:51:32;;;;;;;4.80;4.00;;;;;;;;;;5093090;28;20439;-69
2022/09/23 14:54:14;;;;;;;7.60;3.10;;;;;;;;;;5092614;28;20447;-69
2022/09/23 14:56:44;;;;;;;5.73;3.90;;;;;;;;;;5091496;28;20520;-68
2022/09/23 14:59:24;;;;;;;4.77;3.43;;;;;;;;;;5092817;28;20495;-69
2022/09/23 15:01:51;;;;;;;6.93;3.33;;;;;;;;;;5092412;28;20430;-69
2022/09/23 15:04:29;;;;;;;5.50;3.27;;;;;;;;;;5091637;28;20478;-69
2022/09/23 15:06:57;;;;;;;6.83;3.57;;;;;;;;;;5092751;28;20428;-70
2022/09/23 15:09:26;;;;;;;7.43;3.90;;;;;;;;;;5092449;28;20459;-69